createdAt,value
2022-10-24T00:01:14.705Z,28.35
2022-10-24T00:04:26.425Z,27.78
2022-10-24T00:07:38.136Z,24.45
2022-10-24T00:10:52.068Z,27.28
2022-10-24T00:14:04.906Z,25.88
2022-10-24T00:17:16.430Z,34.95
2022-10-24T00:20:28.630Z,29.50
2022-10-24T00:23:40.980Z,27.35
2022-10-24T00:26:52.735Z,25.18
2022-10-24T00:30:04.627Z,24.13
2022-10-24T00:33:16.400Z,25.10
2022-10-24T00:36:30.862Z,21.05
2022-10-24T00:39:42.428Z,24.60
2022-10-24T00:42:54.970Z,30.63
2022-10-24T00:46:08.324Z,23.33
2022-10-24T00:49:25.467Z,25.40
2022-10-24T00:52:42.475Z,25.80
2022-10-24T00:55:58.410Z,22.60
2022-10-24T00:59:13.764Z,23.43
2022-10-24T01:02:25.870Z,25.55
2022-10-24T01:05:44.101Z,22.03
2022-10-24T01:09:02.128Z,25.48
2022-10-24T01:12:26.330Z,23.33
2022-10-24T01:15:45.940Z,28.00
2022-10-24T01:19:01.737Z,24.53
2022-10-24T01:22:18.961Z,28.48
2022-10-24T01:25:38.348Z,29.10
2022-10-24T01:28:56.214Z,30.58
2022-10-24T01:32:12.699Z,31.18
2022-10-24T01:35:41.000Z,33.98
2022-10-24T01:38:58.053Z,27.60
2022-10-24T01:45:27.786Z,27.13
2022-10-24T01:48:44.672Z,26.85
2022-10-24T01:52:00.761Z,25.20
2022-10-24T01:55:15.098Z,28.43
2022-10-24T01:58:28.205Z,29.28
2022-10-24T02:01:41.047Z,26.75
2022-10-24T02:04:58.786Z,28.48
2022-10-24T02:08:15.093Z,27.03
2022-10-24T02:11:26.680Z,26.55
2022-10-24T02:14:45.690Z,26.13
2022-10-24T02:17:57.942Z,26.10
2022-10-24T02:21:19.957Z,27.73
2022-10-24T02:24:35.834Z,31.00
2022-10-24T02:27:52.393Z,27.73
2022-10-24T02:31:10.126Z,25.48
2022-10-24T02:34:23.952Z,31.08
2022-10-24T02:37:38.810Z,31.73
2022-10-24T02:40:52.312Z,32.05
2022-10-24T02:44:06.525Z,34.63
2022-10-24T02:47:20.627Z,38.18
2022-10-24T02:50:32.916Z,28.23
2022-10-24T02:53:45.373Z,30.53
2022-10-24T02:57:02.332Z,35.55
2022-10-24T03:00:18.625Z,33.30
2022-10-24T03:03:30.429Z,35.83
2022-10-24T03:06:42.098Z,29.58
2022-10-24T03:09:54.482Z,32.23
2022-10-24T03:13:06.159Z,30.68
2022-10-24T03:16:17.739Z,31.13
2022-10-24T03:19:29.315Z,29.60
2022-10-24T03:22:41.063Z,32.30
2022-10-24T03:25:53.001Z,33.10
2022-10-24T03:29:04.644Z,28.45
2022-10-24T03:32:16.358Z,30.50
2022-10-24T03:35:28.312Z,31.25
2022-10-24T03:38:40.380Z,36.10
2022-10-24T03:41:52.188Z,27.90
2022-10-24T03:45:03.874Z,28.65
2022-10-24T03:48:16.272Z,25.63
2022-10-24T03:51:28.121Z,28.15
2022-10-24T03:54:40.175Z,30.83
2022-10-24T03:57:51.801Z,31.20
2022-10-24T04:01:03.540Z,30.03
2022-10-24T04:04:15.683Z,29.23
2022-10-24T04:07:27.540Z,34.93
2022-10-24T04:10:39.503Z,33.63
2022-10-24T04:13:52.352Z,29.15
2022-10-24T04:17:04.186Z,29.90
2022-10-24T04:20:19.573Z,31.05
2022-10-24T04:23:33.486Z,29.50
2022-10-24T04:26:45.594Z,32.33
2022-10-24T04:29:57.379Z,36.30
2022-10-24T04:33:09.175Z,38.10
2022-10-24T04:36:20.997Z,38.43
2022-10-24T04:39:32.725Z,31.50
2022-10-24T04:42:44.683Z,35.38
2022-10-24T04:45:57.129Z,37.35
2022-10-24T04:49:09.948Z,43.40
2022-10-24T04:52:21.564Z,41.70
2022-10-24T04:55:33.606Z,40.45
2022-10-24T04:58:45.724Z,43.23
2022-10-24T05:01:58.547Z,47.53
2022-10-24T05:05:11.203Z,43.95
2022-10-24T05:08:23.475Z,42.70
2022-10-24T05:11:35.997Z,45.05
2022-10-24T05:14:48.904Z,43.63
2022-10-24T05:18:00.545Z,40.18
2022-10-24T05:21:12.849Z,38.30
2022-10-24T05:24:24.653Z,49.58
2022-10-24T05:27:36.682Z,45.08
2022-10-24T05:30:50.723Z,42.28
2022-10-24T05:34:02.324Z,40.63
2022-10-24T05:37:14.246Z,39.43
2022-10-24T05:40:26.192Z,37.40
2022-10-24T05:43:37.890Z,35.98
2022-10-24T05:46:49.670Z,35.33
2022-10-24T05:50:01.405Z,35.55
2022-10-24T05:53:13.392Z,36.28
2022-10-24T05:56:25.032Z,32.05
2022-10-24T05:59:37.133Z,32.58
2022-10-24T06:02:49.615Z,93.42
2022-10-24T06:06:01.767Z,60.73
2022-10-24T06:09:14.125Z,42.00
2022-10-24T06:12:25.975Z,34.75
2022-10-24T06:15:37.880Z,41.50
2022-10-24T06:18:49.700Z,96.95
2022-10-24T06:22:01.398Z,39.80
2022-10-24T06:25:15.103Z,41.00
2022-10-24T06:28:27.464Z,38.80
2022-10-24T06:31:39.755Z,42.13
2022-10-24T06:34:51.576Z,34.28
2022-10-24T06:38:03.240Z,36.75
2022-10-24T06:41:17.644Z,32.40
2022-10-24T06:44:29.454Z,36.63
2022-10-24T06:47:41.250Z,36.30
2022-10-24T06:50:53.081Z,35.73
2022-10-24T06:54:05.284Z,38.40
2022-10-24T06:57:18.026Z,30.85
2022-10-24T07:00:30.217Z,30.90
2022-10-24T07:03:41.912Z,30.88
2022-10-24T07:06:53.904Z,26.43
2022-10-24T07:10:05.905Z,42.25
2022-10-24T07:13:17.659Z,42.20
2022-10-24T07:16:31.361Z,37.25
2022-10-24T07:19:43.153Z,34.50
2022-10-24T07:22:54.947Z,31.83
2022-10-24T07:26:11.827Z,30.95
2022-10-24T07:29:24.499Z,29.30
2022-10-24T07:32:36.262Z,34.88
2022-10-24T07:35:50.175Z,36.43
2022-10-24T07:39:03.485Z,40.15
2022-10-24T07:42:18.756Z,33.05
2022-10-24T07:45:32.290Z,31.23
2022-10-24T07:48:44.336Z,28.43
2022-10-24T07:51:56.200Z,29.08
2022-10-24T07:55:08.211Z,28.35
2022-10-24T07:58:20.403Z,25.80
2022-10-24T08:01:34.793Z,23.18
2022-10-24T08:04:47.106Z,21.75
2022-10-24T08:08:11.940Z,24.68
2022-10-24T08:11:18.109Z,21.83
2022-10-24T08:14:29.873Z,23.68
2022-10-24T08:17:41.832Z,23.25
2022-10-24T08:21:02.671Z,23.98
2022-10-24T08:24:15.048Z,19.23
2022-10-24T08:27:26.825Z,17.00
2022-10-24T08:30:38.751Z,20.33
2022-10-24T08:33:50.949Z,16.90
2022-10-24T08:37:02.903Z,20.93
2022-10-24T08:40:20.779Z,16.15
2022-10-24T08:43:33.481Z,21.25
2022-10-24T08:46:56.063Z,21.68
2022-10-24T08:50:15.321Z,70.43
2022-10-24T08:53:31.946Z,50.03
2022-10-24T08:56:43.914Z,23.23
2022-10-24T08:59:58.354Z,19.80
2022-10-24T09:03:22.934Z,19.55
2022-10-24T09:06:33.528Z,22.30
2022-10-24T09:09:51.117Z,18.05
2022-10-24T09:13:03.404Z,13.88
2022-10-24T09:16:21.697Z,20.48
2022-10-24T09:19:36.379Z,16.35
2022-10-24T09:22:49.440Z,13.10
2022-10-24T09:26:03.922Z,16.68
2022-10-24T09:29:16.761Z,15.33
2022-10-24T09:32:32.360Z,13.23
2022-10-24T09:35:45.953Z,18.85
2022-10-24T09:38:57.807Z,13.58
2022-10-24T09:42:13.995Z,17.90
2022-10-24T09:45:46.676Z,13.00
2022-10-24T09:49:01.545Z,15.55
2022-10-24T09:52:23.437Z,16.68
2022-10-24T09:55:35.809Z,21.28
2022-10-24T09:58:48.598Z,14.70
2022-10-24T10:02:13.098Z,16.15
2022-10-24T10:05:27.446Z,20.50
2022-10-24T10:08:41.460Z,15.30
2022-10-24T10:12:03.792Z,17.53
2022-10-24T10:15:29.125Z,20.45
2022-10-24T10:18:50.099Z,19.78
2022-10-24T10:22:05.434Z,18.50
2022-10-24T10:25:34.577Z,19.65
2022-10-24T10:28:59.895Z,19.93
2022-10-24T10:32:17.808Z,29.90
2022-10-24T10:35:36.695Z,18.63
2022-10-24T10:39:03.723Z,21.68
2022-10-24T10:42:21.006Z,17.95
2022-10-24T10:45:43.080Z,21.85
2022-10-24T10:49:07.202Z,17.60
2022-10-24T10:52:24.477Z,15.55
2022-10-24T10:55:42.203Z,15.33
2022-10-24T10:59:02.169Z,35.53
2022-10-24T11:02:41.063Z,15.58
2022-10-24T11:06:06.176Z,14.13
2022-10-24T11:09:33.905Z,15.58
2022-10-24T11:12:47.482Z,12.55
2022-10-24T11:16:04.976Z,25.28
2022-10-24T11:19:28.080Z,17.38
2022-10-24T11:22:45.058Z,17.20
2022-10-24T11:26:02.552Z,13.60
2022-10-24T11:29:22.242Z,19.30
2022-10-24T11:32:40.990Z,16.25
2022-10-24T11:36:12.975Z,13.98
2022-10-24T11:39:29.246Z,17.55
2022-10-24T11:42:48.226Z,18.23
2022-10-24T11:46:06.252Z,14.88
2022-10-24T11:49:26.245Z,13.45
2022-10-24T11:52:43.429Z,12.90
2022-10-24T11:56:00.853Z,16.35
2022-10-24T11:59:18.795Z,11.13
2022-10-24T12:03:09.941Z,16.80
2022-10-24T12:06:53.773Z,15.50
2022-10-24T12:10:30.010Z,9.53
2022-10-24T12:17:42.520Z,11.15
2022-10-24T12:20:58.785Z,11.05
2022-10-24T12:24:15.321Z,12.33
2022-10-24T12:27:36.497Z,14.03
2022-10-24T12:30:49.045Z,11.68
2022-10-24T12:34:49.445Z,11.98
2022-10-24T12:38:02.837Z,7.98
2022-10-24T12:41:38.700Z,11.25
2022-10-24T12:44:54.500Z,10.93
2022-10-24T12:48:40.845Z,9.73
2022-10-24T12:51:53.143Z,8.30
2022-10-24T12:55:05.574Z,10.75
2022-10-24T12:58:32.503Z,8.33
2022-10-24T13:01:44.501Z,10.05
2022-10-24T13:05:08.840Z,8.48
2022-10-24T13:08:35.465Z,9.55
2022-10-24T13:12:01.344Z,9.60
2022-10-24T13:15:29.700Z,8.55
2022-10-24T13:18:53.521Z,8.90
2022-10-24T13:22:07.258Z,9.08
2022-10-24T13:25:42.025Z,8.85
2022-10-24T13:28:53.830Z,12.53
2022-10-24T13:32:36.132Z,8.80
2022-10-24T13:35:48.521Z,12.00
2022-10-24T13:39:05.376Z,10.43
2022-10-24T13:45:46.377Z,11.48
2022-10-24T13:49:00.705Z,12.08
2022-10-24T13:52:19.655Z,12.68
2022-10-24T13:55:36.429Z,13.70
2022-10-24T13:58:50.117Z,15.78
2022-10-24T14:02:04.189Z,14.45
2022-10-24T14:05:36.059Z,14.53
2022-10-24T14:09:02.805Z,10.10
2022-10-24T14:12:06.896Z,12.40
2022-10-24T14:15:27.735Z,11.40
2022-10-24T14:18:41.478Z,9.20
2022-10-24T14:21:53.242Z,13.58
2022-10-24T14:25:05.256Z,12.25
2022-10-24T14:28:24.312Z,17.25
2022-10-24T14:31:39.073Z,9.40
2022-10-24T14:34:53.066Z,17.68
2022-10-24T14:38:09.567Z,14.63
2022-10-24T14:41:20.058Z,9.90
2022-10-24T14:44:35.030Z,8.83
2022-10-24T14:47:50.307Z,7.20
2022-10-24T14:51:11.369Z,9.78
2022-10-24T14:54:27.673Z,14.08
2022-10-24T14:57:42.760Z,8.75
2022-10-24T15:00:54.975Z,12.90
2022-10-24T15:04:09.304Z,8.78
2022-10-24T15:07:34.276Z,10.68
2022-10-24T15:10:49.092Z,7.50
2022-10-24T15:14:08.540Z,13.43
2022-10-24T15:17:32.920Z,11.03
2022-10-24T15:20:48.638Z,16.30
2022-10-24T15:24:03.523Z,11.88
2022-10-24T15:27:30.750Z,11.55
2022-10-24T15:30:43.990Z,12.85
2022-10-24T15:33:56.166Z,11.35
2022-10-24T15:37:09.366Z,12.90
2022-10-24T15:40:27.531Z,11.50
2022-10-24T15:43:39.450Z,19.95
2022-10-24T15:46:52.345Z,13.33
2022-10-24T15:50:04.142Z,12.75
2022-10-24T15:53:23.480Z,10.33
2022-10-24T15:56:35.325Z,15.78
2022-10-24T15:59:47.210Z,14.38
2022-10-24T16:03:04.341Z,17.95
2022-10-24T16:06:16.485Z,19.35
2022-10-24T16:09:31.624Z,12.40
2022-10-24T16:12:43.570Z,14.15
2022-10-24T16:15:56.665Z,18.88
2022-10-24T16:19:13.319Z,15.90
2022-10-24T16:22:25.184Z,24.15
2022-10-24T16:25:40.947Z,12.48
2022-10-24T16:28:52.807Z,14.18
2022-10-24T16:32:04.729Z,19.00
2022-10-24T16:35:18.390Z,17.53
2022-10-24T16:38:31.464Z,19.08
2022-10-24T16:41:45.408Z,28.18
2022-10-24T16:44:58.581Z,13.30
2022-10-24T16:48:11.528Z,12.80
2022-10-24T16:51:30.582Z,12.78
2022-10-24T16:54:42.286Z,18.70
2022-10-24T16:57:54.479Z,11.00
2022-10-24T17:01:13.956Z,13.28
2022-10-24T17:04:28.081Z,15.40
2022-10-24T17:07:39.702Z,13.83
2022-10-24T17:10:51.756Z,19.05
2022-10-24T17:14:03.721Z,20.38
2022-10-24T17:17:15.565Z,17.80
2022-10-24T17:20:27.413Z,16.38
2022-10-24T17:23:40.907Z,18.18
2022-10-24T17:26:54.177Z,20.43
2022-10-24T17:30:07.486Z,19.80
2022-10-24T17:33:22.109Z,22.05
2022-10-24T17:36:39.199Z,19.65
2022-10-24T17:39:56.698Z,22.40
2022-10-24T17:43:09.522Z,41.18
2022-10-24T17:46:23.437Z,23.90
2022-10-24T17:49:35.232Z,18.25
2022-10-24T17:52:49.436Z,16.65
2022-10-24T17:56:01.410Z,17.25
2022-10-24T17:59:13.484Z,17.53
2022-10-24T18:02:25.461Z,19.48
2022-10-24T18:05:38.416Z,20.93
2022-10-24T18:08:51.861Z,16.13
2022-10-24T18:12:03.738Z,16.45
2022-10-24T18:15:20.769Z,17.93
2022-10-24T18:21:43.927Z,17.00
2022-10-24T18:24:55.866Z,19.45
2022-10-24T18:28:07.769Z,13.70
2022-10-24T18:31:21.682Z,17.78
2022-10-24T18:34:33.582Z,16.33
2022-10-24T18:37:45.782Z,14.08
2022-10-24T18:40:59.258Z,18.93
2022-10-24T18:44:29.111Z,20.50
2022-10-24T18:47:43.149Z,15.45
2022-10-24T18:50:57.915Z,16.65
2022-10-24T18:54:14.515Z,20.50
2022-10-24T18:57:30.953Z,16.15
2022-10-24T19:00:44.526Z,18.50
2022-10-24T19:03:57.499Z,17.80
2022-10-24T19:07:09.792Z,21.63
2022-10-24T19:10:30.218Z,17.68
2022-10-24T19:13:42.781Z,13.28
2022-10-24T19:16:58.224Z,15.23
2022-10-24T19:20:12.048Z,17.20
2022-10-24T19:23:24.736Z,18.85
2022-10-24T19:26:36.688Z,16.60
2022-10-24T19:29:48.879Z,21.65
2022-10-24T19:33:01.061Z,22.05
2022-10-24T19:36:19.097Z,26.48
2022-10-24T19:39:33.015Z,22.47
2022-10-24T19:42:43.419Z,18.25
2022-10-24T19:49:10.531Z,18.93
2022-10-24T19:52:22.625Z,23.55
2022-10-24T19:55:35.865Z,24.45
2022-10-24T19:58:48.520Z,22.10
2022-10-24T20:02:00.546Z,24.28
2022-10-24T20:05:14.438Z,23.00
2022-10-24T20:08:26.266Z,22.45
2022-10-24T20:11:38.113Z,22.55
2022-10-24T20:14:50.357Z,21.58
2022-10-24T20:18:02.144Z,20.38
2022-10-24T20:21:17.718Z,22.25
2022-10-24T20:24:30.524Z,19.00
2022-10-24T20:27:43.786Z,22.80
2022-10-24T20:30:56.012Z,19.00
2022-10-24T20:34:10.278Z,26.55
2022-10-24T20:37:22.240Z,25.30
2022-10-24T20:40:34.630Z,25.20
2022-10-24T20:43:46.683Z,22.10
2022-10-24T20:46:59.224Z,23.45
2022-10-24T20:50:12.859Z,24.23
2022-10-24T20:53:24.686Z,23.18
2022-10-24T20:56:42.355Z,23.18
2022-10-24T20:59:52.106Z,22.75
2022-10-24T21:03:03.937Z,21.83
2022-10-24T21:06:23.009Z,23.48
2022-10-24T21:09:35.133Z,29.55
2022-10-24T21:12:47.776Z,23.93
2022-10-24T21:16:04.027Z,28.48
2022-10-24T21:19:15.723Z,28.98
2022-10-24T21:22:27.493Z,32.18
2022-10-24T21:25:39.381Z,30.80
2022-10-24T21:28:54.036Z,33.83
2022-10-24T21:32:05.169Z,33.10
2022-10-24T21:35:17.080Z,31.13
2022-10-24T21:38:29.167Z,28.68
2022-10-24T21:41:40.960Z,32.60
2022-10-24T21:44:52.702Z,30.48
2022-10-24T21:48:04.444Z,31.98
2022-10-24T21:51:19.754Z,30.00
2022-10-24T21:54:32.777Z,32.58
2022-10-24T21:57:44.539Z,31.63
2022-10-24T22:00:56.474Z,30.15
2022-10-24T22:04:09.057Z,25.80
2022-10-24T22:07:20.821Z,25.40
2022-10-24T22:10:32.802Z,32.88
2022-10-24T22:13:45.770Z,36.50
2022-10-24T22:16:58.050Z,34.70
2022-10-24T22:20:13.043Z,31.23
2022-10-24T22:23:25.278Z,30.05
2022-10-24T22:26:37.543Z,29.78
2022-10-24T22:29:49.164Z,32.98
2022-10-24T22:33:03.086Z,33.98
2022-10-24T22:36:22.268Z,30.80
2022-10-24T22:39:35.530Z,32.43
2022-10-24T22:42:48.685Z,33.78
2022-10-24T22:46:06.815Z,34.98
2022-10-24T22:49:23.934Z,34.78
2022-10-24T22:52:37.155Z,35.38
2022-10-24T22:56:15.564Z,33.18
2022-10-24T22:59:30.808Z,37.73
2022-10-24T23:02:47.657Z,39.50
2022-10-24T23:06:04.431Z,37.58
2022-10-24T23:09:16.995Z,42.60
2022-10-24T23:12:30.784Z,41.75
2022-10-24T23:15:44.070Z,40.53
2022-10-24T23:18:57.656Z,38.68
2022-10-24T23:22:14.957Z,42.33
2022-10-24T23:25:29.174Z,42.20
2022-10-24T23:28:47.791Z,41.98
2022-10-24T23:32:01.191Z,42.15
2022-10-24T23:35:16.194Z,40.85
2022-10-24T23:38:29.889Z,41.48
2022-10-24T23:41:43.525Z,42.15
2022-10-24T23:44:57.011Z,38.25
2022-10-24T23:48:29.243Z,43.30
2022-10-24T23:51:46.073Z,46.50
2022-10-24T23:54:59.436Z,42.75
2022-10-24T23:58:13.083Z,42.80
